createdAt,value
2018-11-06T00:00:12.647Z,10.44
2018-11-06T00:02:41.448Z,10.43
2018-11-06T00:05:16.369Z,10.41
2018-11-06T00:07:45.555Z,10.41
2018-11-06T00:10:14.211Z,10.39
2018-11-06T00:12:42.932Z,10.38
2018-11-06T00:15:11.618Z,10.38
2018-11-06T00:17:40.746Z,10.35
2018-11-06T00:20:11.629Z,10.33
2018-11-06T00:22:40.213Z,10.33
2018-11-06T00:25:11.682Z,10.31
2018-11-06T00:27:40.789Z,10.29
2018-11-06T00:30:13.990Z,10.30
2018-11-06T00:32:43.872Z,10.28
2018-11-06T00:37:48.451Z,10.25
2018-11-06T00:40:17.265Z,10.24
2018-11-06T00:42:45.916Z,10.23
2018-11-06T00:47:49.413Z,10.21
2018-11-06T00:50:18.607Z,10.21
2018-11-06T00:52:47.465Z,10.21
2018-11-06T00:55:16.110Z,10.19
2018-11-06T00:57:45.116Z,10.17
2018-11-06T01:00:18.525Z,10.15
2018-11-06T01:02:47.290Z,10.15
2018-11-06T01:05:16.722Z,10.14
2018-11-06T01:07:47.607Z,10.12
2018-11-06T01:10:16.271Z,10.10
2018-11-06T01:12:44.810Z,10.07
2018-11-06T01:15:14.741Z,10.05
2018-11-06T01:17:44.293Z,10.02
2018-11-06T01:20:14.765Z,10.02
2018-11-06T01:22:43.849Z,10.02
2018-11-06T01:25:13.737Z,9.99
2018-11-06T01:27:42.260Z,9.96
2018-11-06T01:30:19.427Z,9.95
2018-11-06T01:32:48.327Z,9.94
2018-11-06T01:35:17.324Z,9.93
2018-11-06T01:37:46.627Z,9.91
2018-11-06T01:40:17.552Z,9.89
2018-11-06T01:42:46.670Z,9.89
2018-11-06T01:47:50.902Z,9.87
2018-11-06T01:50:19.697Z,9.86
2018-11-06T01:52:48.903Z,9.86
2018-11-06T01:55:17.935Z,9.86
2018-11-06T01:57:48.585Z,9.86
2018-11-06T02:00:18.663Z,9.85
2018-11-06T02:02:47.621Z,9.85
2018-11-06T02:05:17.112Z,9.85
2018-11-06T02:07:46.720Z,9.84
2018-11-06T02:10:16.011Z,9.83
2018-11-06T02:12:45.327Z,9.84
2018-11-06T02:15:14.152Z,9.83
2018-11-06T02:17:43.960Z,9.84
2018-11-06T02:22:47.909Z,9.86
2018-11-06T02:25:16.531Z,9.88
2018-11-06T02:27:45.314Z,9.91
2018-11-06T02:30:15.682Z,9.94
2018-11-06T02:32:46.706Z,9.96
2018-11-06T02:35:15.328Z,10.00
2018-11-06T02:37:44.029Z,10.03
2018-11-06T02:40:14.934Z,10.06
2018-11-06T02:45:24.526Z,10.14
2018-11-06T02:47:53.220Z,10.19
2018-11-06T02:50:24.730Z,10.21
2018-11-06T02:52:53.190Z,10.25
2018-11-06T02:55:21.901Z,10.28
2018-11-06T02:57:50.487Z,10.30
2018-11-06T03:00:19.207Z,10.31
2018-11-06T03:02:48.273Z,10.28
2018-11-06T03:05:16.863Z,10.29
2018-11-06T03:07:46.046Z,10.29
2018-11-06T03:10:15.297Z,10.31
2018-11-06T03:12:45.046Z,10.32
2018-11-06T03:15:14.601Z,10.33
2018-11-06T03:17:43.030Z,10.35
2018-11-06T03:20:12.366Z,10.35
2018-11-06T03:22:41.449Z,10.36
2018-11-06T03:27:44.952Z,10.34
2018-11-06T03:30:15.498Z,10.34
2018-11-06T03:32:44.159Z,10.31
2018-11-06T03:35:13.593Z,10.33
2018-11-06T03:37:42.187Z,10.33
2018-11-06T03:40:11.709Z,10.34
2018-11-06T03:42:41.204Z,10.32
2018-11-06T03:45:10.469Z,10.34
2018-11-06T03:47:39.837Z,10.33
2018-11-06T03:50:09.984Z,10.35
2018-11-06T03:52:38.545Z,10.37
2018-11-06T03:55:07.146Z,10.39
2018-11-06T03:57:35.712Z,10.41
2018-11-06T04:00:05.146Z,10.44
2018-11-06T04:02:33.692Z,10.43
2018-11-06T04:05:02.158Z,10.45
2018-11-06T04:07:30.860Z,10.44
2018-11-06T04:09:59.409Z,10.46
2018-11-06T04:12:28.444Z,10.48
2018-11-06T04:14:57.172Z,10.48
2018-11-06T04:17:26.429Z,10.51
2018-11-06T04:19:54.937Z,10.51
2018-11-06T04:22:28.416Z,10.50
2018-11-06T04:24:57.002Z,10.49
2018-11-06T04:27:26.380Z,10.49
2018-11-06T04:29:54.875Z,10.49
2018-11-06T04:34:57.985Z,10.46
2018-11-06T04:37:26.672Z,10.45
2018-11-06T04:39:55.200Z,10.43
2018-11-06T04:47:33.364Z,10.40
2018-11-06T04:50:01.962Z,10.41
2018-11-06T04:52:30.562Z,10.43
2018-11-06T04:54:59.299Z,10.45
2018-11-06T04:57:27.934Z,10.45
2018-11-06T04:59:57.064Z,10.45
2018-11-06T05:02:25.893Z,10.44
2018-11-06T05:04:55.117Z,10.45
2018-11-06T05:07:23.877Z,10.46
2018-11-06T05:09:52.502Z,10.47
2018-11-06T05:12:21.044Z,10.46
2018-11-06T05:14:49.753Z,10.44
2018-11-06T05:17:18.295Z,10.45
2018-11-06T05:19:46.912Z,10.46
2018-11-06T05:22:15.427Z,10.47
2018-11-06T05:24:44.033Z,10.50
2018-11-06T05:27:20.779Z,10.50
2018-11-06T05:29:50.089Z,10.52
2018-11-06T05:32:18.525Z,10.54
2018-11-06T05:34:47.130Z,10.54
2018-11-06T05:40:01.165Z,10.55
2018-11-06T05:42:29.605Z,10.54
2018-11-06T05:44:58.095Z,10.54
2018-11-06T05:47:26.684Z,10.53
2018-11-06T05:49:55.973Z,10.51
2018-11-06T05:52:24.508Z,10.49
2018-11-06T05:54:52.940Z,10.47
2018-11-06T05:57:22.060Z,10.45
2018-11-06T05:59:50.584Z,10.44
2018-11-06T06:04:53.680Z,10.43
2018-11-06T06:07:22.297Z,10.43
2018-11-06T06:09:50.744Z,10.43
2018-11-06T06:12:20.082Z,10.44
2018-11-06T06:14:48.609Z,10.43
2018-11-06T06:17:17.151Z,10.43
2018-11-06T06:19:45.715Z,10.42
2018-11-06T06:22:14.481Z,10.41
2018-11-06T06:24:43.137Z,10.42
2018-11-06T06:27:11.691Z,10.41
2018-11-06T06:29:40.990Z,10.41
2018-11-06T06:32:09.985Z,10.38
2018-11-06T06:34:39.033Z,10.37
2018-11-06T06:37:07.868Z,10.38
2018-11-06T06:39:36.917Z,10.38
2018-11-06T06:42:06.280Z,10.37
2018-11-06T06:44:35.215Z,10.36
2018-11-06T06:47:03.980Z,10.35
2018-11-06T06:49:32.778Z,10.38
2018-11-06T06:52:01.536Z,10.38
2018-11-06T06:54:30.197Z,10.38
2018-11-06T06:56:58.522Z,10.39
2018-11-06T06:59:27.756Z,10.39
2018-11-06T07:01:56.558Z,10.40
2018-11-06T07:04:25.259Z,10.40
2018-11-06T07:06:54.472Z,10.42
2018-11-06T07:09:23.363Z,10.42
2018-11-06T07:11:52.609Z,10.45
2018-11-06T07:14:21.096Z,10.47
2018-11-06T07:16:49.612Z,10.49
2018-11-06T07:19:18.864Z,10.54
2018-11-06T07:21:47.307Z,10.56
2018-11-06T07:24:15.863Z,10.56
2018-11-06T07:26:44.350Z,10.61
2018-11-06T07:29:13.559Z,10.63
2018-11-06T07:31:42.694Z,10.65
2018-11-06T07:34:11.285Z,10.64
2018-11-06T07:36:39.765Z,10.69
2018-11-06T07:39:10.812Z,10.70
2018-11-06T07:41:40.096Z,10.71
2018-11-06T07:44:09.673Z,10.75
2018-11-06T07:46:38.261Z,10.76
2018-11-06T07:49:07.167Z,10.80
2018-11-06T07:51:36.141Z,10.82
2018-11-06T07:54:04.597Z,10.84
2018-11-06T07:56:33.157Z,10.87
2018-11-06T07:59:01.675Z,10.88
2018-11-06T08:01:30.434Z,10.92
2018-11-06T08:03:59.213Z,10.96
2018-11-06T08:06:27.723Z,11.00
2018-11-06T08:08:56.332Z,11.05
2018-11-06T08:11:25.001Z,11.12
2018-11-06T08:13:54.274Z,11.17
2018-11-06T08:16:22.801Z,11.21
2018-11-06T08:18:51.251Z,11.25
2018-11-06T08:21:20.482Z,11.32
2018-11-06T08:23:49.337Z,11.38
2018-11-06T08:26:18.006Z,11.43
2018-11-06T08:28:46.468Z,11.48
2018-11-06T08:31:15.650Z,11.53
2018-11-06T08:33:43.700Z,11.62
2018-11-06T08:36:12.165Z,11.69
2018-11-06T08:38:44.620Z,11.76
2018-11-06T08:41:13.135Z,11.83
2018-11-06T08:43:41.854Z,11.93
2018-11-06T08:46:10.281Z,11.99
2018-11-06T08:48:39.173Z,12.07
2018-11-06T08:51:08.049Z,12.13
2018-11-06T08:53:36.932Z,12.20
2018-11-06T08:56:06.102Z,12.23
2018-11-06T08:58:35.656Z,12.26
2018-11-06T09:01:04.132Z,12.29
2018-11-06T09:03:33.182Z,12.33
2018-11-06T09:06:02.008Z,12.38
2018-11-06T09:08:30.415Z,12.46
2018-11-06T09:10:59.208Z,12.53
2018-11-06T09:13:27.757Z,12.64
2018-11-06T09:15:56.391Z,12.75
2018-11-06T09:18:25.055Z,12.86
2018-11-06T09:20:53.624Z,12.96
2018-11-06T09:23:22.977Z,13.08
2018-11-06T09:25:51.770Z,13.20
2018-11-06T09:28:20.428Z,13.32
2018-11-06T09:33:22.937Z,13.58
2018-11-06T09:35:51.811Z,13.68
2018-11-06T09:38:20.290Z,13.75
2018-11-06T09:40:48.758Z,13.84
2018-11-06T09:43:17.325Z,13.93
2018-11-06T09:45:45.864Z,14.03
2018-11-06T09:48:14.834Z,14.09
2018-11-06T09:50:43.464Z,14.18
2018-11-06T09:53:12.013Z,14.29
2018-11-06T09:55:40.775Z,14.39
2018-11-06T09:58:09.255Z,14.50
2018-11-06T10:00:37.984Z,14.58
2018-11-06T10:03:10.690Z,14.68
2018-11-06T10:05:39.324Z,14.78
2018-11-06T10:08:07.877Z,14.86
2018-11-06T10:10:36.443Z,14.96
2018-11-06T10:13:05.381Z,15.08
2018-11-06T10:15:33.982Z,15.12
2018-11-06T10:18:02.436Z,15.13
2018-11-06T10:20:30.974Z,15.08
2018-11-06T10:22:59.527Z,15.02
2018-11-06T10:25:28.005Z,14.96
2018-11-06T10:27:56.477Z,14.91
2018-11-06T10:30:24.996Z,14.92
2018-11-06T10:33:00.073Z,15.04
2018-11-06T10:35:28.719Z,15.19
2018-11-06T10:38:04.151Z,15.38
2018-11-06T10:40:32.882Z,15.55
2018-11-06T10:43:02.384Z,15.71
2018-11-06T10:45:31.138Z,15.88
2018-11-06T10:48:00.281Z,16.02
2018-11-06T10:50:29.216Z,16.12
2018-11-06T10:52:57.704Z,16.22
2018-11-06T10:55:26.882Z,16.33
2018-11-06T10:57:55.496Z,16.47
2018-11-06T11:00:29.407Z,16.66
2018-11-06T11:03:03.101Z,16.87
2018-11-06T11:05:31.648Z,17.07
2018-11-06T11:08:00.230Z,17.30
2018-11-06T11:10:28.744Z,17.51
2018-11-06T11:12:57.316Z,17.65
2018-11-06T11:15:25.950Z,17.64
2018-11-06T11:17:55.065Z,17.73
2018-11-06T11:20:23.779Z,17.83
2018-11-06T11:22:52.355Z,18.01
2018-11-06T11:25:27.197Z,18.16
2018-11-06T11:30:33.987Z,18.32
2018-11-06T11:33:02.509Z,18.36
2018-11-06T11:35:31.339Z,18.64
2018-11-06T11:37:59.924Z,18.98
2018-11-06T11:40:28.411Z,19.30
2018-11-06T11:42:56.999Z,19.48
2018-11-06T11:45:25.525Z,19.65
2018-11-06T11:47:55.408Z,19.81
2018-11-06T11:50:24.072Z,20.03
2018-11-06T11:55:26.713Z,20.40
2018-11-06T11:57:55.173Z,20.48
2018-11-06T12:00:26.928Z,20.61
2018-11-06T12:02:57.012Z,20.71
2018-11-06T12:05:25.672Z,20.83
2018-11-06T12:07:54.315Z,20.84
2018-11-06T12:10:22.785Z,20.80
2018-11-06T12:12:51.404Z,20.97
2018-11-06T12:15:20.027Z,21.02
2018-11-06T12:17:49.281Z,21.21
2018-11-06T12:20:18.325Z,21.45
2018-11-06T12:22:46.878Z,21.52
2018-11-06T12:25:15.677Z,21.54
2018-11-06T12:27:43.994Z,21.50
2018-11-06T12:30:16.863Z,21.38
2018-11-06T12:32:46.306Z,21.24
2018-11-06T12:35:15.380Z,21.13
2018-11-06T12:37:44.115Z,21.09
2018-11-06T12:40:13.504Z,21.05
2018-11-06T12:42:42.516Z,20.91
2018-11-06T12:45:12.769Z,20.93
2018-11-06T12:47:42.139Z,20.98
2018-11-06T12:50:10.883Z,21.15
2018-11-06T12:55:15.264Z,21.50
2018-11-06T12:57:43.868Z,21.72
2018-11-06T13:00:14.738Z,21.76
2018-11-06T13:02:44.423Z,21.62
2018-11-06T13:05:12.937Z,21.59
2018-11-06T13:07:42.489Z,21.54
2018-11-06T13:10:11.894Z,21.47
2018-11-06T13:12:40.811Z,21.45
2018-11-06T13:15:09.482Z,21.42
2018-11-06T13:17:38.584Z,21.34
2018-11-06T13:20:09.052Z,21.25
2018-11-06T13:22:38.305Z,21.14
2018-11-06T13:27:41.922Z,20.65
2018-11-06T13:30:16.422Z,20.45
2018-11-06T13:32:46.105Z,20.32
2018-11-06T13:35:15.008Z,20.27
2018-11-06T13:37:47.064Z,20.26
2018-11-06T13:40:16.593Z,20.19
2018-11-06T13:42:45.942Z,20.13
2018-11-06T13:45:19.496Z,20.10
2018-11-06T13:47:48.155Z,20.10
2018-11-06T13:50:17.506Z,20.01
2018-11-06T13:52:46.360Z,19.89
2018-11-06T13:55:16.603Z,19.78
2018-11-06T13:57:46.839Z,19.71
2018-11-06T14:00:18.483Z,19.62
2018-11-06T14:02:47.167Z,19.53
2018-11-06T14:05:22.480Z,19.45
2018-11-06T14:07:50.904Z,19.38
2018-11-06T14:10:19.399Z,19.30
2018-11-06T14:12:47.996Z,19.23
2018-11-06T14:15:16.540Z,19.20
2018-11-06T14:17:45.138Z,19.10
2018-11-06T14:20:14.952Z,19.07
2018-11-06T14:22:43.961Z,19.07
2018-11-06T14:25:12.464Z,19.04
2018-11-06T14:27:41.113Z,18.98
2018-11-06T14:30:18.229Z,18.93
2018-11-06T14:32:47.676Z,18.89
2018-11-06T14:35:17.465Z,18.84
2018-11-06T14:37:46.584Z,18.81
2018-11-06T14:40:16.101Z,18.76
2018-11-06T14:42:48.686Z,18.73
2018-11-06T14:45:18.418Z,18.66
2018-11-06T14:47:47.546Z,18.63
2018-11-06T14:50:16.087Z,18.55
2018-11-06T14:52:44.649Z,18.49
2018-11-06T14:55:15.017Z,18.44
2018-11-06T14:57:43.635Z,18.39
2018-11-06T15:00:17.204Z,18.32
2018-11-06T15:02:47.361Z,18.27
2018-11-06T15:05:16.308Z,18.20
2018-11-06T15:07:45.845Z,18.15
2018-11-06T15:10:14.323Z,18.11
2018-11-06T15:12:43.317Z,18.05
2018-11-06T15:15:13.387Z,18.00
2018-11-06T15:17:43.458Z,17.94
2018-11-06T15:20:15.091Z,17.89
2018-11-06T15:22:44.502Z,17.85
2018-11-06T15:25:14.000Z,17.79
2018-11-06T15:30:17.958Z,17.65
2018-11-06T15:32:46.777Z,17.58
2018-11-06T15:35:16.597Z,17.52
2018-11-06T15:37:45.173Z,17.45
2018-11-06T15:40:17.600Z,17.40
2018-11-06T15:42:46.324Z,17.34
2018-11-06T15:45:16.133Z,17.26
2018-11-06T15:47:45.277Z,17.19
2018-11-06T15:50:15.124Z,17.12
2018-11-06T15:52:44.598Z,17.05
2018-11-06T15:55:13.328Z,17.01
2018-11-06T15:57:42.002Z,16.95
2018-11-06T16:00:15.834Z,16.91
2018-11-06T16:02:45.043Z,16.84
2018-11-06T16:05:13.679Z,16.78
2018-11-06T16:07:42.604Z,16.74
2018-11-06T16:10:16.263Z,16.69
2018-11-06T16:12:45.665Z,16.66
2018-11-06T16:15:14.320Z,16.62
2018-11-06T16:17:42.988Z,16.60
2018-11-06T16:20:14.433Z,16.57
2018-11-06T16:22:43.375Z,16.54
2018-11-06T16:25:13.545Z,16.48
2018-11-06T16:27:48.783Z,16.46
2018-11-06T16:30:20.638Z,16.41
2018-11-06T16:32:49.763Z,16.38
2018-11-06T16:35:19.660Z,16.33
2018-11-06T16:37:48.532Z,16.30
2018-11-06T16:40:17.550Z,16.28
2018-11-06T16:42:46.623Z,16.24
2018-11-06T16:45:17.748Z,16.23
2018-11-06T16:47:47.618Z,16.19
2018-11-06T16:50:16.954Z,16.17
2018-11-06T16:52:45.500Z,16.13
2018-11-06T16:55:14.596Z,16.10
2018-11-06T17:00:21.124Z,16.04
2018-11-06T17:02:49.496Z,16.02
2018-11-06T17:05:18.059Z,15.98
2018-11-06T17:07:47.397Z,15.96
2018-11-06T17:10:16.824Z,15.94
2018-11-06T17:12:45.402Z,15.91
2018-11-06T17:17:52.318Z,15.80
2018-11-06T17:20:22.100Z,15.70
2018-11-06T17:22:50.615Z,15.65
2018-11-06T17:25:20.817Z,15.62
2018-11-06T17:27:49.428Z,15.60
2018-11-06T17:30:22.472Z,15.58
2018-11-06T17:32:50.893Z,15.56
2018-11-06T17:35:20.450Z,15.51
2018-11-06T17:37:49.096Z,15.51
2018-11-06T17:40:18.916Z,15.47
2018-11-06T17:42:47.540Z,15.42
2018-11-06T17:45:17.471Z,15.37
2018-11-06T17:47:46.049Z,15.32
2018-11-06T17:50:16.116Z,15.30
2018-11-06T17:52:44.929Z,15.28
2018-11-06T17:55:18.623Z,15.27
2018-11-06T17:57:47.024Z,15.24
2018-11-06T18:00:22.116Z,15.21
2018-11-06T18:02:50.701Z,15.19
2018-11-06T18:05:20.731Z,15.18
2018-11-06T18:07:49.367Z,15.14
2018-11-06T18:10:19.653Z,15.14
2018-11-06T18:12:51.634Z,15.13
2018-11-06T18:15:21.786Z,15.09
2018-11-06T18:17:54.044Z,15.07
2018-11-06T18:22:57.067Z,14.99
2018-11-06T18:25:25.760Z,14.96
2018-11-06T18:27:54.253Z,14.95
2018-11-06T18:30:22.807Z,14.93
2018-11-06T18:32:51.505Z,14.89
2018-11-06T18:35:20.534Z,14.86
2018-11-06T18:37:50.780Z,14.83
2018-11-06T18:40:20.349Z,14.80
2018-11-06T18:42:53.838Z,14.77
2018-11-06T18:45:23.211Z,14.74
2018-11-06T18:47:51.955Z,14.73
2018-11-06T18:50:23.752Z,14.68
2018-11-06T18:52:52.817Z,14.68
2018-11-06T18:55:22.304Z,14.66
2018-11-06T18:57:50.901Z,14.63
2018-11-06T19:00:20.814Z,14.63
2018-11-06T19:02:50.774Z,14.61
2018-11-06T19:05:19.992Z,14.61
2018-11-06T19:07:48.523Z,14.58
2018-11-06T19:10:17.717Z,14.57
2018-11-06T19:12:47.033Z,14.55
2018-11-06T19:15:17.845Z,14.51
2018-11-06T19:17:46.899Z,14.51
2018-11-06T19:20:16.071Z,14.49
2018-11-06T19:22:44.738Z,14.48
2018-11-06T19:25:14.090Z,14.46
2018-11-06T19:27:43.344Z,14.42
2018-11-06T19:30:14.902Z,14.40
2018-11-06T19:32:43.310Z,14.36
2018-11-06T19:35:11.999Z,14.35
2018-11-06T19:37:41.694Z,14.32
2018-11-06T19:40:12.113Z,14.28
2018-11-06T19:42:42.845Z,14.24
2018-11-06T19:45:12.138Z,14.22
2018-11-06T19:47:40.749Z,14.20
2018-11-06T19:50:12.299Z,14.18
2018-11-06T19:52:41.510Z,14.18
2018-11-06T19:55:11.541Z,14.17
2018-11-06T19:57:40.081Z,14.14
2018-11-06T20:00:14.575Z,14.14
2018-11-06T20:02:44.309Z,14.11
2018-11-06T20:05:12.846Z,14.08
2018-11-06T20:07:42.731Z,14.08
2018-11-06T20:10:13.655Z,14.06
2018-11-06T20:12:43.468Z,14.06
2018-11-06T20:15:13.393Z,14.05
2018-11-06T20:17:42.586Z,14.05
2018-11-06T20:20:14.553Z,14.05
2018-11-06T20:22:43.463Z,14.03
2018-11-06T20:25:12.957Z,14.01
2018-11-06T20:27:41.762Z,13.99
2018-11-06T20:30:12.569Z,13.97
2018-11-06T20:32:41.558Z,13.97
2018-11-06T20:35:17.172Z,13.94
2018-11-06T20:37:45.794Z,13.90
2018-11-06T20:40:17.470Z,13.89
2018-11-06T20:42:46.641Z,13.88
2018-11-06T20:45:16.363Z,13.84
2018-11-06T20:47:45.470Z,13.86
2018-11-06T20:50:18.108Z,13.84
2018-11-06T20:52:50.051Z,13.82
2018-11-06T20:55:19.450Z,13.80
2018-11-06T20:57:48.818Z,13.78
2018-11-06T21:00:20.161Z,13.76
2018-11-06T21:02:49.587Z,13.76
2018-11-06T21:05:18.245Z,13.75
2018-11-06T21:07:47.375Z,13.74
2018-11-06T21:10:17.968Z,13.69
2018-11-06T21:12:47.086Z,13.67
2018-11-06T21:15:15.699Z,13.65
2018-11-06T21:17:45.645Z,13.63
2018-11-06T21:20:15.554Z,13.61
2018-11-06T21:22:44.369Z,13.59
2018-11-06T21:25:13.982Z,13.57
2018-11-06T21:27:43.283Z,13.52
2018-11-06T21:30:13.818Z,13.48
2018-11-06T21:32:43.762Z,13.44
2018-11-06T21:35:12.451Z,13.41
2018-11-06T21:37:41.600Z,13.35
2018-11-06T21:40:12.966Z,13.31
2018-11-06T21:42:42.065Z,13.27
2018-11-06T21:45:11.657Z,13.25
2018-11-06T21:47:40.996Z,13.22
2018-11-06T21:50:11.084Z,13.21
2018-11-06T21:52:39.698Z,13.20
2018-11-06T21:55:09.867Z,13.20
2018-11-06T21:57:38.988Z,13.15
2018-11-06T22:00:09.953Z,13.15
2018-11-06T22:02:42.485Z,13.14
2018-11-06T22:05:12.508Z,13.12
2018-11-06T22:07:41.663Z,13.09
2018-11-06T22:10:12.683Z,13.08
2018-11-06T22:12:42.050Z,13.09
2018-11-06T22:15:11.739Z,13.07
2018-11-06T22:17:41.320Z,13.04
2018-11-06T22:20:11.888Z,13.02
2018-11-06T22:22:44.293Z,13.00
2018-11-06T22:25:12.889Z,12.97
2018-11-06T22:27:41.659Z,12.94
2018-11-06T22:30:12.224Z,12.92
2018-11-06T22:32:41.430Z,12.89
2018-11-06T22:35:11.755Z,12.87
2018-11-06T22:37:40.395Z,12.84
2018-11-06T22:42:44.405Z,12.82
2018-11-06T22:45:14.226Z,12.80
2018-11-06T22:47:42.964Z,12.77
2018-11-06T22:50:15.294Z,12.75
2018-11-06T22:52:44.551Z,12.75
2018-11-06T22:55:14.310Z,12.74
2018-11-06T22:57:49.284Z,12.71
2018-11-06T23:00:24.675Z,12.67
2018-11-06T23:02:53.524Z,12.66
2018-11-06T23:05:26.112Z,12.65
2018-11-06T23:07:59.860Z,12.64
2018-11-06T23:10:28.492Z,12.62
2018-11-06T23:12:57.764Z,12.60
2018-11-06T23:15:26.312Z,12.61
2018-11-06T23:17:54.793Z,12.60
2018-11-06T23:20:23.515Z,12.59
2018-11-06T23:22:52.802Z,12.57
2018-11-06T23:25:21.510Z,12.55
2018-11-06T23:27:50.065Z,12.53
2018-11-06T23:30:18.734Z,12.48
2018-11-06T23:32:47.193Z,12.44
2018-11-06T23:35:15.614Z,12.43
2018-11-06T23:37:44.279Z,12.40
2018-11-06T23:40:12.841Z,12.34
2018-11-06T23:42:42.299Z,12.34
2018-11-06T23:45:11.049Z,12.31
2018-11-06T23:47:39.618Z,12.28
2018-11-06T23:50:09.195Z,12.26
2018-11-06T23:52:39.563Z,12.20
2018-11-06T23:55:08.550Z,12.19
2018-11-06T23:57:37.210Z,12.14
